Time;durP1;ratioP1;P1;durP2;ratioP2;P2;SDS_P1;SDS_P2;PMS_P1;PMS_P2;Temp;Humidity;BMP_temperature;BMP_pressure;BME280_temperature;BME280_humidity;BME280_pressure;Samples;Min_cycle;Max_cycle;Signal;HPM_P1;HPM_P2
2023/09/16 00:01:54;;;;;;;4.68;3.80;;;15.60;99.90;;;;;;4884189;29;20201;-62
2023/09/16 00:04:23;;;;;;;4.63;3.87;;;15.60;99.90;;;;;;4878256;29;20253;-66
2023/09/16 00:06:51;;;;;;;4.30;3.20;;;15.60;99.90;;;;;;4878249;29;20232;-66
2023/09/16 00:09:18;;;;;;;4.63;3.70;;;15.50;99.90;;;;;;4877763;29;20298;-71
2023/09/16 00:11:44;;;;;;;5.87;3.73;;;15.40;99.90;;;;;;4883340;29;20230;-69
2023/09/16 00:14:11;;;;;;;4.60;3.17;;;15.40;99.90;;;;;;4871406;29;20241;-66
2023/09/16 00:16:40;;;;;;;6.18;3.85;;;15.40;99.90;;;;;;4878986;29;20631;-67
2023/09/16 00:19:09;;;;;;;4.20;3.28;;;15.40;99.90;;;;;;4863079;29;20666;-67
2023/09/16 00:21:36;;;;;;;5.22;3.83;;;15.40;99.90;;;;;;4854870;29;20296;-68
2023/09/16 00:24:04;;;;;;;4.72;3.47;;;15.40;99.90;;;;;;4878392;29;20232;-67
2023/09/16 00:26:34;;;;;;;5.68;4.07;;;15.40;99.90;;;;;;4878414;29;20262;-67
2023/09/16 00:29:01;;;;;;;8.87;3.97;;;15.40;99.90;;;;;;4861806;29;20257;-67
2023/09/16 00:31:28;;;;;;;4.73;3.17;;;15.30;99.90;;;;;;4876888;29;20291;-67
2023/09/16 00:33:55;;;;;;;4.43;3.63;;;15.20;99.90;;;;;;4880281;29;20209;-63
2023/09/16 00:36:23;;;;;;;6.00;3.97;;;15.30;99.90;;;;;;4869729;29;20703;-62
2023/09/16 00:38:50;;;;;;;3.93;3.17;;;15.30;99.90;;;;;;4877403;29;20265;-62
2023/09/16 00:41:18;;;;;;;4.57;3.40;;;15.30;99.90;;;;;;4875842;29;20265;-68
2023/09/16 00:43:45;;;;;;;5.73;4.03;;;15.20;99.90;;;;;;4870221;29;20245;-68
2023/09/16 00:46:12;;;;;;;7.50;3.80;;;15.30;99.90;;;;;;4869437;29;20254;-68
2023/09/16 00:48:40;;;;;;;6.57;3.33;;;15.20;99.90;;;;;;4868116;29;20603;-73
2023/09/16 00:51:07;;;;;;;4.50;3.67;;;15.30;99.90;;;;;;4869654;29;20225;-67
2023/09/16 00:53:34;;;;;;;6.78;3.78;;;15.30;99.90;;;;;;4847023;29;20202;-67
2023/09/16 00:56:01;;;;;;;6.13;3.20;;;15.40;99.90;;;;;;4864757;29;20290;-72
2023/09/16 00:58:29;;;;;;;5.07;3.60;;;15.50;99.90;;;;;;4860821;29;20312;-67
2023/09/16 01:00:57;;;;;;;7.90;3.55;;;15.50;99.90;;;;;;4881343;29;20651;-67
2023/09/16 01:03:24;;;;;;;8.53;4.47;;;15.60;99.90;;;;;;4877761;29;20540;-66
2023/09/16 01:05:54;;;;;;;5.97;3.83;;;15.70;99.90;;;;;;4864725;29;20208;-69
2023/09/16 01:08:22;;;;;;;5.97;4.03;;;15.70;99.90;;;;;;4878069;29;20209;-64
2023/09/16 01:10:50;;;;;;;5.35;4.30;;;15.60;99.90;;;;;;4861029;29;20197;-64
2023/09/16 01:13:17;;;;;;;4.80;3.75;;;15.60;99.90;;;;;;4878411;29;20210;-65
2023/09/16 01:15:55;;;;;;;4.78;3.92;;;15.70;99.90;;;;;;4874970;29;20210;-69
2023/09/16 01:18:29;;;;;;;6.85;3.75;;;15.80;99.90;;;;;;4865019;29;20221;-64
2023/09/16 01:20:58;;;;;;;5.88;4.05;;;15.80;99.90;;;;;;4880606;29;20237;-64
2023/09/16 01:23:25;;;;;;;5.07;3.78;;;15.60;99.90;;;;;;4866427;29;20229;-64
2023/09/16 01:25:52;;;;;;;5.93;4.25;;;15.70;99.90;;;;;;4893791;29;20216;-64
2023/09/16 01:28:19;;;;;;;5.15;3.78;;;15.70;99.90;;;;;;4863619;29;20574;-65
2023/09/16 01:30:50;;;;;;;6.47;4.00;;;15.60;99.90;;;;;;4872708;29;20295;-64
2023/09/16 01:33:23;;;;;;;5.83;4.13;;;15.60;99.90;;;;;;4865413;29;20230;-64
2023/09/16 01:36:02;;;;;;;5.20;4.20;;;15.50;99.90;;;;;;4862745;29;20281;-64
2023/09/16 01:38:32;;;;;;;6.20;3.63;;;15.60;99.90;;;;;;4880991;29;20222;-64
2023/09/16 01:41:01;;;;;;;6.22;4.53;;;15.50;99.90;;;;;;4875295;29;20543;-64
2023/09/16 01:43:28;;;;;;;5.37;4.57;;;15.60;99.90;;;;;;4868916;29;20290;-68
2023/09/16 01:45:55;;;;;;;4.70;4.18;;;15.60;99.90;;;;;;4880673;29;20271;-65
2023/09/16 01:48:22;;;;;;;4.90;4.33;;;15.60;99.90;;;;;;4851745;29;20211;-65
2023/09/16 01:51:06;;;;;;;8.00;4.60;;;15.60;99.90;;;;;;4881278;29;20732;-62
2023/09/16 01:53:33;;;;;;;5.80;4.70;;;15.40;99.90;;;;;;4872394;29;20280;-62
2023/09/16 01:56:00;;;;;;;6.67;4.60;;;15.40;99.90;;;;;;4863785;29;20566;-62
2023/09/16 01:58:27;;;;;;;5.73;4.03;;;15.30;99.90;;;;;;4864310;29;20221;-63
2023/09/16 02:04:54;;;;;;;6.63;4.37;;;15.50;99.90;;;;;;4866507;29;20542;-62
2023/09/16 02:07:21;;;;;;;6.43;4.20;;;15.50;99.90;;;;;;4861525;29;20638;-62
2023/09/16 02:09:51;;;;;;;7.73;5.30;;;15.60;99.90;;;;;;4845536;29;20684;-61
2023/09/16 02:12:19;;;;;;;6.18;4.72;;;15.60;99.90;;;;;;4869483;29;20221;-62
2023/09/16 02:14:49;;;;;;;8.45;4.43;;;15.60;99.90;;;;;;4862272;29;20306;-63
2023/09/16 02:17:17;;;;;;;7.55;4.90;;;15.70;99.90;;;;;;4844924;29;20229;-62
2023/09/16 02:19:44;;;;;;;8.27;4.60;;;15.60;99.90;;;;;;4830108;29;20197;-64
2023/09/16 02:22:11;;;;;;;6.07;4.68;;;15.60;99.90;;;;;;4850825;29;20704;-64
2023/09/16 02:24:38;;;;;;;6.27;4.50;;;15.60;99.90;;;;;;4854691;29;20291;-65
2023/09/16 02:27:07;;;;;;;8.83;5.70;;;15.50;99.90;;;;;;4841126;29;20555;-67
2023/09/16 02:29:34;;;;;;;6.13;4.75;;;15.50;99.90;;;;;;4824485;29;20207;-65
2023/09/16 02:32:01;;;;;;;6.47;4.75;;;15.60;99.90;;;;;;4858065;29;20234;-66
2023/09/16 02:34:31;;;;;;;7.78;5.22;;;15.70;99.90;;;;;;4856638;29;20536;-66
2023/09/16 02:36:59;;;;;;;6.85;5.05;;;15.70;99.90;;;;;;4841314;29;20253;-66
2023/09/16 02:39:28;;;;;;;8.20;5.63;;;15.70;99.90;;;;;;4848902;29;20270;-66
2023/09/16 02:41:57;;;;;;;19.15;11.35;;;15.90;99.90;;;;;;4846953;29;20266;-66
2023/09/16 02:44:24;;;;;;;8.10;6.13;;;16.10;99.90;;;;;;4849589;29;20692;-66
2023/09/16 02:46:53;;;;;;;12.73;7.78;;;16.30;99.90;;;;;;4839636;29;20210;-68
2023/09/16 02:49:20;;;;;;;9.48;7.05;;;16.50;99.90;;;;;;4844355;29;20250;-66
2023/09/16 02:51:47;;;;;;;11.82;8.15;;;16.70;99.90;;;;;;4843235;29;20194;-65
2023/09/16 02:54:14;;;;;;;13.63;8.77;;;16.80;99.90;;;;;;4824935;29;20297;-62
2023/09/16 02:56:41;;;;;;;8.52;5.75;;;17.00;99.90;;;;;;4852018;29;20199;-63
2023/09/16 02:59:08;;;;;;;7.65;4.93;;;17.30;99.90;;;;;;4850253;29;20209;-62
2023/09/16 03:01:35;;;;;;;7.38;4.57;;;17.40;99.90;;;;;;4845888;29;20224;-66
2023/09/16 03:04:03;;;;;;;6.53;4.10;;;17.00;99.90;;;;;;4852833;29;20199;-62
2023/09/16 03:06:30;;;;;;;5.97;4.65;;;16.90;99.90;;;;;;4841134;29;20604;-62
2023/09/16 03:08:56;;;;;;;5.95;4.32;;;16.80;99.90;;;;;;4835524;29;20206;-63
2023/09/16 03:11:25;;;;;;;5.82;4.32;;;16.80;99.90;;;;;;4845229;29;20636;-63
2023/09/16 03:13:52;;;;;;;9.23;4.25;;;16.70;99.90;;;;;;4855369;29;20236;-63
2023/09/16 03:16:23;;;;;;;5.95;3.88;;;16.60;99.90;;;;;;4883618;29;20246;-64
2023/09/16 03:18:53;;;;;;;6.22;4.00;;;16.50;99.90;;;;;;4874788;29;20320;-63
2023/09/16 03:21:24;;;;;;;6.95;4.43;;;16.50;99.90;;;;;;4878834;29;20243;-62
2023/09/16 03:23:55;;;;;;;10.82;4.90;;;16.40;99.90;;;;;;4866542;29;20220;-63
2023/09/16 03:26:22;;;;;;;7.32;5.18;;;16.30;99.90;;;;;;4874440;29;20226;-63
2023/09/16 03:28:53;;;;;;;5.82;4.28;;;16.30;99.90;;;;;;4873991;29;20217;-63
2023/09/16 03:31:24;;;;;;;7.28;4.28;;;16.30;99.90;;;;;;4868565;29;20678;-64
2023/09/16 03:33:53;;;;;;;6.05;4.22;;;16.30;99.90;;;;;;4856502;29;20221;-63
2023/09/16 03:36:22;;;;;;;6.78;4.65;;;16.30;99.90;;;;;;4862344;29;20208;-63
2023/09/16 03:38:50;;;;;;;9.63;5.00;;;16.30;99.90;;;;;;4877671;29;20224;-62
2023/09/16 03:41:18;;;;;;;6.57;4.95;;;16.10;99.90;;;;;;4879466;29;20201;-65
2023/09/16 03:43:52;;;;;;;7.03;4.90;;;16.10;99.90;;;;;;4861825;29;20209;-62
2023/09/16 03:46:23;;;;;;;6.75;5.40;;;16.10;99.90;;;;;;4861488;29;20201;-62
2023/09/16 03:48:52;;;;;;;8.65;5.38;;;16.10;99.90;;;;;;4857730;29;20213;-62
2023/09/16 03:51:21;;;;;;;7.00;4.60;;;16.20;99.90;;;;;;4858806;29;20228;-62
2023/09/16 03:53:50;;;;;;;7.65;5.35;;;16.20;99.90;;;;;;4877237;29;20214;-67
2023/09/16 03:56:17;;;;;;;8.45;4.65;;;16.20;99.90;;;;;;4875651;29;20666;-62
2023/09/16 03:58:44;;;;;;;7.05;5.35;;;16.20;99.90;;;;;;4865684;29;20250;-64
2023/09/16 04:01:11;;;;;;;5.97;4.68;;;16.20;99.90;;;;;;4866828;29;20201;-65
2023/09/16 04:03:38;;;;;;;9.02;4.80;;;16.20;99.90;;;;;;4864421;29;20273;-67
2023/09/16 04:06:06;;;;;;;7.20;4.82;;;16.20;99.90;;;;;;4859756;29;20224;-67
2023/09/16 04:08:33;;;;;;;12.55;5.28;;;16.10;99.90;;;;;;4875975;29;20197;-66
2023/09/16 04:11:09;;;;;;;6.47;4.82;;;16.10;99.90;;;;;;4870203;29;20232;-67
2023/09/16 04:13:37;;;;;;;6.72;4.80;;;16.00;99.90;;;;;;4866549;29;20249;-70
2023/09/16 04:16:04;;;;;;;6.70;4.03;;;16.00;99.90;;;;;;4863256;29;20213;-69
2023/09/16 04:18:31;;;;;;;14.98;7.22;;;15.90;99.90;;;;;;4876941;29;20230;-67
2023/09/16 04:20:58;;;;;;;17.60;9.25;;;15.80;99.90;;;;;;4884977;29;20198;-69
2023/09/16 04:23:25;;;;;;;22.63;11.00;;;15.80;99.90;;;;;;4875844;29;20281;-65
2023/09/16 04:25:57;;;;;;;9.27;6.03;;;15.70;99.90;;;;;;4877928;29;20201;-66
2023/09/16 04:28:24;;;;;;;9.18;5.43;;;15.70;99.90;;;;;;4867813;29;20202;-66
2023/09/16 04:30:53;;;;;;;7.85;5.40;;;15.60;99.90;;;;;;4885216;29;20213;-67
2023/09/16 04:33:22;;;;;;;8.57;5.43;;;15.50;99.90;;;;;;4893474;29;20233;-67
2023/09/16 04:35:50;;;;;;;7.03;4.25;;;15.50;99.90;;;;;;4877420;29;20563;-67
2023/09/16 04:38:18;;;;;;;11.10;6.32;;;15.40;99.90;;;;;;4877361;29;20236;-67
2023/09/16 04:40:47;;;;;;;10.40;6.32;;;15.40;99.90;;;;;;4901810;29;20292;-62
2023/09/16 04:43:15;;;;;;;11.23;6.68;;;15.40;99.90;;;;;;4869767;29;20646;-63
2023/09/16 04:45:44;;;;;;;8.57;6.05;;;15.40;99.90;;;;;;4874312;29;20563;-62
2023/09/16 04:48:15;;;;;;;9.13;5.93;;;15.40;99.90;;;;;;4892904;29;20205;-63
2023/09/16 04:50:45;;;;;;;8.32;5.55;;;15.40;99.90;;;;;;4906379;29;20235;-62
2023/09/16 04:53:14;;;;;;;7.20;5.18;;;15.40;99.90;;;;;;4874120;29;20674;-70
2023/09/16 04:55:42;;;;;;;7.18;5.35;;;15.40;99.90;;;;;;4877260;29;20233;-62
2023/09/16 04:58:09;;;;;;;6.97;5.30;;;15.40;99.90;;;;;;4877440;29;20694;-63
2023/09/16 05:00:38;;;;;;;7.67;4.73;;;15.50;99.90;;;;;;4889364;29;20193;-62
2023/09/16 05:03:06;;;;;;;8.15;5.25;;;15.50;99.90;;;;;;4895408;29;20627;-62
2023/09/16 05:05:35;;;;;;;7.05;4.72;;;15.50;99.90;;;;;;4877280;29;20208;-61
2023/09/16 05:08:04;;;;;;;5.55;4.05;;;15.50;99.90;;;;;;4890135;29;20197;-62
2023/09/16 05:10:32;;;;;;;6.70;4.60;;;15.50;99.90;;;;;;4883203;29;20213;-62
2023/09/16 05:12:59;;;;;;;5.68;4.28;;;15.60;99.90;;;;;;4877894;29;20233;-66
2023/09/16 05:15:28;;;;;;;8.15;4.72;;;15.60;99.90;;;;;;4861575;29;20237;-61
2023/09/16 05:17:55;;;;;;;5.68;4.07;;;15.60;99.90;;;;;;4876576;29;20225;-61
2023/09/16 05:20:22;;;;;;;6.80;5.00;;;15.70;99.90;;;;;;4891894;29;20202;-66
2023/09/16 05:22:50;;;;;;;8.80;5.05;;;15.70;99.90;;;;;;4895246;29;20197;-61
2023/09/16 05:25:21;;;;;;;5.57;4.55;;;15.80;99.90;;;;;;4884293;29;20212;-62
2023/09/16 05:27:48;;;;;;;5.82;4.20;;;15.80;99.90;;;;;;4874976;29;20206;-63
2023/09/16 05:30:15;;;;;;;5.90;4.90;;;15.80;99.90;;;;;;4888807;29;20201;-61
2023/09/16 05:32:44;;;;;;;5.45;4.18;;;15.80;99.90;;;;;;4878696;29;20285;-65
2023/09/16 05:35:11;;;;;;;6.93;4.55;;;15.90;99.90;;;;;;4884651;29;20222;-63
2023/09/16 05:37:39;;;;;;;9.02;4.85;;;16.00;99.90;;;;;;4866911;29;20735;-63
2023/09/16 05:40:07;;;;;;;6.93;4.90;;;16.20;99.90;;;;;;4877911;29;20204;-62
2023/09/16 05:42:35;;;;;;;9.30;5.07;;;16.40;99.90;;;;;;4875910;29;20201;-64
2023/09/16 05:45:03;;;;;;;9.43;4.60;;;16.50;99.90;;;;;;4876520;29;20711;-64
2023/09/16 05:47:32;;;;;;;4.60;3.97;;;16.70;99.90;;;;;;4870341;29;20288;-61
2023/09/16 05:50:00;;;;;;;3.67;3.00;;;16.80;99.90;;;;;;4877109;29;20196;-64
2023/09/16 05:52:28;;;;;;;5.93;4.90;;;17.00;99.90;;;;;;4888262;29;20194;-67
2023/09/16 05:54:57;;;;;;;4.43;3.63;;;18.10;99.90;;;;;;4874192;29;20202;-64
2023/09/16 05:57:24;;;;;;;3.80;3.40;;;19.90;99.90;;;;;;4891182;29;20641;-61
2023/09/16 05:59:51;;;;;;;5.50;4.05;;;21.40;99.90;;;;;;4894781;29;20224;-64
2023/09/16 06:02:19;;;;;;;4.97;3.47;;;22.40;99.90;;;;;;4877243;29;20201;-64
2023/09/16 06:04:46;;;;;;;3.55;2.85;;;23.40;99.90;;;;;;4872293;29;20230;-65
2023/09/16 06:07:14;;;;;;;3.97;3.10;;;24.30;99.90;;;;;;4890172;29;20201;-65
2023/09/16 06:09:41;;;;;;;4.57;3.33;;;25.10;99.90;;;;;;4859373;29;20229;-65
2023/09/16 06:12:09;;;;;;;4.45;2.85;;;25.80;99.90;;;;;;4890442;29;20202;-65
2023/09/16 06:14:36;;;;;;;6.15;3.55;;;26.40;99.90;;;;;;4883076;29;20497;-64
2023/09/16 06:17:03;;;;;;;4.43;3.38;;;26.70;99.90;;;;;;4874250;29;20327;-63
2023/09/16 06:19:32;;;;;;;3.72;3.33;;;27.00;99.90;;;;;;4871361;29;20472;-64
2023/09/16 06:21:59;;;;;;;3.88;2.90;;;27.20;99.90;;;;;;4874533;29;20281;-64
2023/09/16 06:24:26;;;;;;;4.13;3.42;;;27.60;99.90;;;;;;4875050;29;20257;-65
2023/09/16 06:26:53;;;;;;;3.90;3.60;;;27.80;99.90;;;;;;4873139;29;20261;-65
2023/09/16 06:29:20;;;;;;;3.97;3.58;;;28.10;99.90;;;;;;4863760;29;20668;-64
2023/09/16 06:31:47;;;;;;;4.30;3.75;;;28.80;99.90;;;;;;4866942;29;20237;-64
2023/09/16 06:34:15;;;;;;;5.10;3.45;;;29.00;99.90;;;;;;4872074;29;20749;-64
2023/09/16 06:36:42;;;;;;;5.25;3.67;;;29.30;99.90;;;;;;4872686;29;20267;-63
2023/09/16 06:39:11;;;;;;;3.90;3.30;;;29.40;99.90;;;;;;4865742;29;20759;-64
2023/09/16 06:41:38;;;;;;;5.72;3.40;;;30.20;99.90;;;;;;4898209;29;20626;-64
2023/09/16 06:44:12;;;;;;;3.75;3.40;;;30.50;99.90;;;;;;4878850;29;20218;-65
2023/09/16 06:46:40;;;;;;;5.28;3.83;;;30.80;99.90;;;;;;4889085;29;20713;-64
2023/09/16 06:49:07;;;;;;;4.53;3.60;;;31.30;99.90;;;;;;4872045;29;20202;-64
2023/09/16 06:51:35;;;;;;;4.38;3.40;;;31.60;99.90;;;;;;4876499;29;20198;-63
2023/09/16 06:54:01;;;;;;;3.40;3.10;;;32.00;99.90;;;;;;4865944;29;20213;-64
2023/09/16 06:56:29;;;;;;;5.40;3.13;;;32.30;99.90;;;;;;4867747;29;20201;-64
2023/09/16 06:58:56;;;;;;;3.42;3.05;;;33.10;99.90;;;;;;4864467;29;20316;-64
2023/09/16 07:01:23;;;;;;;3.20;2.90;;;33.00;99.90;;;;;;4895032;29;20269;-64
2023/09/16 07:03:50;;;;;;;5.07;3.67;;;33.90;99.90;;;;;;4887321;29;20697;-69
2023/09/16 07:06:17;;;;;;;3.58;3.28;;;33.90;99.90;;;;;;4869557;29;20206;-68
2023/09/16 07:08:44;;;;;;;3.70;3.40;;;33.30;99.90;;;;;;4867208;29;20217;-69
2023/09/16 07:11:13;;;;;;;3.50;3.20;;;32.60;99.90;;;;;;4871952;29;20205;-68
2023/09/16 07:13:41;;;;;;;3.38;3.00;;;32.90;99.90;;;;;;4870246;29;20245;-67
2023/09/16 07:16:11;;;;;;;3.33;2.88;;;33.80;99.90;;;;;;4870391;29;20204;-69
2023/09/16 07:18:38;;;;;;;3.05;2.85;;;34.80;99.90;;;;;;4861465;29;20214;-69
2023/09/16 07:21:06;;;;;;;3.28;2.97;;;36.10;99.90;;;;;;4840075;29;20201;-68
2023/09/16 07:23:33;;;;;;;3.72;3.30;;;36.60;99.90;;;;;;4866846;29;20547;-70
2023/09/16 07:26:00;;;;;;;3.70;3.33;;;36.30;99.90;;;;;;4856124;29;20691;-70
2023/09/16 07:28:28;;;;;;;3.58;3.28;;;36.30;99.90;;;;;;4874669;29;20197;-68
2023/09/16 07:30:55;;;;;;;3.40;3.10;;;35.40;99.90;;;;;;4872835;29;20205;-68
2023/09/16 07:33:22;;;;;;;5.03;3.03;;;36.00;99.90;;;;;;4851938;29;20737;-69
2023/09/16 07:35:51;;;;;;;3.60;3.30;;;35.40;99.90;;;;;;4871846;29;20201;-69
2023/09/16 07:38:18;;;;;;;3.70;3.40;;;36.30;99.90;;;;;;4872683;29;20293;-69
2023/09/16 07:40:45;;;;;;;2.88;2.67;;;37.40;99.90;;;;;;4864162;29;20494;-69
2023/09/16 07:43:12;;;;;;;3.20;2.90;;;37.80;99.90;;;;;;4865529;29;20201;-68
2023/09/16 07:45:41;;;;;;;3.28;3.00;;;38.20;99.90;;;;;;4852125;29;20225;-69
2023/09/16 07:48:09;;;;;;;3.65;3.35;;;37.80;99.90;;;;;;4863395;29;20206;-68
2023/09/16 07:50:36;;;;;;;3.28;2.97;;;38.00;99.90;;;;;;4872768;29;20217;-69
2023/09/16 07:53:04;;;;;;;3.10;2.90;;;38.80;99.90;;;;;;4856783;29;20198;-68
2023/09/16 07:55:31;;;;;;;3.85;3.40;;;39.80;99.90;;;;;;4855185;29;20249;-69
2023/09/16 07:57:57;;;;;;;4.22;3.83;;;40.20;99.90;;;;;;4868740;29;20225;-69
2023/09/16 08:00:24;;;;;;;3.10;2.90;;;39.50;99.90;;;;;;4877456;29;20199;-68
2023/09/16 08:02:51;;;;;;;4.20;3.78;;;40.10;99.90;;;;;;4867954;29;20197;-68
2023/09/16 08:05:18;;;;;;;3.53;3.10;;;40.70;99.90;;;;;;4842487;29;20205;-68
2023/09/16 08:07:46;;;;;;;4.57;3.70;;;41.10;99.90;;;;;;4856218;29;20201;-68
2023/09/16 08:10:13;;;;;;;3.58;3.28;;;41.60;99.90;;;;;;4875270;29;20196;-68
2023/09/16 08:12:40;;;;;;;3.75;3.13;;;42.00;99.90;;;;;;4879051;29;20200;-68
2023/09/16 08:15:07;;;;;;;3.85;3.50;;;40.40;99.90;;;;;;4868147;29;20233;-63
2023/09/16 08:17:37;;;;;;;3.58;3.03;;;39.90;99.90;;;;;;4876116;29;20744;-65
2023/09/16 08:20:06;;;;;;;3.72;3.42;;;41.00;99.90;;;;;;4863261;29;20225;-62
2023/09/16 08:22:33;;;;;;;3.67;3.40;;;41.40;99.90;;;;;;4883743;29;20697;-63
2023/09/16 08:25:02;;;;;;;3.38;3.08;;;42.80;99.90;;;;;;4871832;29;20197;-64
2023/09/16 08:27:31;;;;;;;3.45;3.15;;;40.60;99.90;;;;;;4876099;29;20801;-65
2023/09/16 08:29:58;;;;;;;3.83;3.53;;;42.40;99.90;;;;;;4874049;29;20578;-63
2023/09/16 08:32:28;;;;;;;4.80;3.08;;;43.90;99.90;;;;;;4870150;29;20240;-64
2023/09/16 08:34:56;;;;;;;3.53;3.22;;;42.60;99.90;;;;;;4876042;29;20189;-63
2023/09/16 08:37:23;;;;;;;4.32;3.40;;;42.40;99.90;;;;;;4871478;29;20659;-62
2023/09/16 08:39:50;;;;;;;3.80;2.92;;;42.80;99.90;;;;;;4886794;29;20320;-64
2023/09/16 08:42:27;;;;;;;3.60;3.28;;;44.00;99.90;;;;;;4883963;29;20197;-62
2023/09/16 08:44:58;;;;;;;3.42;3.13;;;43.80;97.00;;;;;;4875290;29;20676;-62
2023/09/16 08:47:34;;;;;;;3.50;3.20;;;42.20;98.30;;;;;;4874328;29;20212;-63
2023/09/16 08:50:09;;;;;;;4.93;3.38;;;43.60;98.90;;;;;;4890640;29;20789;-63
2023/09/16 08:52:48;;;;;;;5.55;3.33;;;44.20;95.70;;;;;;4871975;29;20252;-63
2023/09/16 08:55:18;;;;;;;3.72;3.28;;;37.60;90.00;;;;;;4868252;29;20612;-63
2023/09/16 08:57:50;;;;;;;3.60;3.30;;;40.00;96.50;;;;;;4868462;29;20312;-62
2023/09/16 09:00:17;;;;;;;3.80;3.50;;;40.20;97.20;;;;;;4889756;29;20281;-62
2023/09/16 09:02:44;;;;;;;3.55;3.25;;;35.70;91.10;;;;;;4865767;29;20820;-62
2023/09/16 09:05:12;;;;;;;3.33;3.03;;;38.30;98.20;;;;;;4865843;29;20204;-62
2023/09/16 09:07:40;;;;;;;6.55;3.50;;;42.00;97.60;;;;;;4888270;29;20638;-63
2023/09/16 09:10:11;;;;;;;3.10;2.90;;;44.30;95.00;;;;;;4865378;29;20545;-63
2023/09/16 09:12:40;;;;;;;3.22;3.03;;;44.60;92.00;;;;;;4865308;29;20228;-63
2023/09/16 09:15:11;;;;;;;3.45;3.15;;;43.50;93.70;;;;;;4873605;29;20411;-62
2023/09/16 09:17:56;;;;;;;3.53;3.22;;;43.50;91.90;;;;;;4874536;29;20520;-63
2023/09/16 09:20:26;;;;;;;3.05;2.85;;;43.60;93.50;;;;;;4875233;29;20205;-63
2023/09/16 09:22:55;;;;;;;4.00;3.60;;;43.90;91.40;;;;;;4871664;29;20247;-65
2023/09/16 09:25:23;;;;;;;3.17;2.88;;;42.80;91.80;;;;;;4869099;29;20698;-70
2023/09/16 09:27:52;;;;;;;3.45;3.17;;;44.70;92.10;;;;;;4873968;29;20955;-69
2023/09/16 09:30:24;;;;;;;3.40;3.10;;;42.70;89.40;;;;;;4875911;29;20204;-71
2023/09/16 09:32:51;;;;;;;3.67;3.38;;;41.90;91.00;;;;;;4870470;29;20344;-70
2023/09/16 09:35:21;;;;;;;3.40;3.20;;;42.50;91.10;;;;;;4870313;29;20726;-70
2023/09/16 09:37:50;;;;;;;3.38;3.08;;;43.50;91.00;;;;;;4872212;29;20250;-69
2023/09/16 09:40:18;;;;;;;3.65;3.35;;;42.80;89.40;;;;;;4870418;29;20255;-70
2023/09/16 09:42:47;;;;;;;4.15;3.75;;;42.50;90.30;;;;;;4872137;29;20197;-69
2023/09/16 09:45:15;;;;;;;3.60;3.30;;;42.00;90.50;;;;;;4859118;29;20669;-69
2023/09/16 09:47:44;;;;;;;3.40;3.10;;;43.00;91.10;;;;;;4887157;29;20537;-69
2023/09/16 09:50:17;;;;;;;3.60;3.30;;;43.50;90.80;;;;;;4858608;29;20205;-70
2023/09/16 09:52:46;;;;;;;3.75;3.45;;;42.70;89.10;;;;;;4874649;29;20693;-69
2023/09/16 09:55:22;;;;;;;4.22;3.53;;;43.20;86.30;;;;;;4869530;29;20209;-69
2023/09/16 09:57:51;;;;;;;3.70;3.40;;;44.10;90.90;;;;;;4873203;29;20611;-69
2023/09/16 10:00:20;;;;;;;3.50;3.20;;;44.60;88.40;;;;;;4875060;29;20240;-70
2023/09/16 10:02:47;;;;;;;3.90;3.60;;;46.20;88.70;;;;;;4882504;29;20238;-70
2023/09/16 10:05:22;;;;;;;3.28;3.08;;;47.90;83.50;;;;;;4874415;29;20276;-69
2023/09/16 10:07:51;;;;;;;3.42;3.20;;;46.20;78.10;;;;;;4874866;29;20292;-72
2023/09/16 10:10:24;;;;;;;3.30;3.08;;;44.40;83.80;;;;;;4873036;29;20272;-68
2023/09/16 10:12:53;;;;;;;4.40;3.45;;;43.80;83.20;;;;;;4881559;29;20561;-69
2023/09/16 10:15:31;;;;;;;3.47;3.17;;;42.60;77.60;;;;;;4863639;29;20292;-69
2023/09/16 10:17:58;;;;;;;3.40;3.10;;;43.60;85.10;;;;;;4866744;29;20233;-69
2023/09/16 10:20:29;;;;;;;3.45;2.90;;;45.20;84.30;;;;;;4874141;29;20217;-69
2023/09/16 10:22:57;;;;;;;4.05;3.40;;;45.90;82.80;;;;;;4872898;29;20244;-69
2023/09/16 10:25:28;;;;;;;3.50;3.30;;;46.60;78.20;;;;;;4882532;29;20206;-69
2023/09/16 10:28:03;;;;;;;4.00;3.70;;;47.30;82.00;;;;;;4871414;29;20196;-69
2023/09/16 10:30:32;;;;;;;3.90;3.60;;;42.50;68.70;;;;;;4874412;29;21098;-69
2023/09/16 10:33:11;;;;;;;4.70;3.35;;;41.70;80.80;;;;;;4856845;29;20247;-69
2023/09/16 10:35:42;;;;;;;3.47;3.17;;;41.50;80.00;;;;;;4866404;29;20280;-63
2023/09/16 10:38:11;;;;;;;3.80;3.50;;;42.30;83.50;;;;;;4873895;29;20201;-64
2023/09/16 10:40:39;;;;;;;4.28;3.83;;;38.70;75.80;;;;;;4876586;29;20571;-64
2023/09/16 10:43:06;;;;;;;5.40;3.60;;;36.00;79.70;;;;;;4876713;29;20677;-62
2023/09/16 10:45:34;;;;;;;3.20;2.95;;;35.40;87.50;;;;;;4860957;29;20212;-62
2023/09/16 10:48:01;;;;;;;4.38;3.40;;;39.40;90.00;;;;;;4874381;29;20201;-63
2023/09/16 10:50:35;;;;;;;4.47;3.60;;;38.20;82.50;;;;;;4855129;29;20304;-63
2023/09/16 10:53:10;;;;;;;3.35;3.15;;;35.20;86.00;;;;;;4871029;29;20711;-63
2023/09/16 10:55:55;;;;;;;5.00;3.40;;;35.30;99.90;;;;;;4867475;29;20193;-65
2023/09/16 10:58:36;;;;;;;4.25;3.95;;;39.20;91.60;;;;;;4880657;29;20740;-64
2023/09/16 11:01:07;;;;;;;4.03;3.67;;;38.20;80.40;;;;;;4870343;29;20240;-64
2023/09/16 11:03:41;;;;;;;3.40;3.10;;;36.10;86.50;;;;;;4883463;29;20202;-65
2023/09/16 11:06:09;;;;;;;4.70;4.30;;;35.90;90.10;;;;;;4871017;29;20610;-63
2023/09/16 11:08:39;;;;;;;3.75;3.45;;;36.10;91.20;;;;;;4878955;29;20209;-63
2023/09/16 11:11:07;;;;;;;3.55;3.25;;;36.70;91.40;;;;;;4851092;29;20285;-64
2023/09/16 11:13:34;;;;;;;3.80;3.50;;;37.50;91.20;;;;;;4868564;29;20244;-64
2023/09/16 11:16:02;;;;;;;3.70;3.40;;;37.20;90.40;;;;;;4871668;29;20200;-64
2023/09/16 11:18:29;;;;;;;3.78;3.47;;;38.00;89.40;;;;;;4860950;29;20213;-63
2023/09/16 11:20:56;;;;;;;3.97;3.63;;;37.30;88.10;;;;;;4853844;29;20249;-64
2023/09/16 11:23:24;;;;;;;4.03;3.63;;;37.10;99.90;;;;;;4862661;29;20505;-63
2023/09/16 11:25:55;;;;;;;3.92;3.63;;;37.10;89.30;;;;;;4869005;29;20620;-63
2023/09/16 11:28:22;;;;;;;4.25;3.85;;;36.30;88.00;;;;;;4872565;29;20209;-64
2023/09/16 11:31:01;;;;;;;4.68;3.95;;;35.70;89.60;;;;;;4869739;29;20280;-64
2023/09/16 11:33:34;;;;;;;4.03;3.72;;;36.10;90.40;;;;;;4873252;29;20308;-63
2023/09/16 11:36:14;;;;;;;5.93;3.88;;;33.50;84.10;;;;;;4876725;29;20208;-63
2023/09/16 11:39:02;;;;;;;3.92;3.60;;;32.80;91.40;;;;;;4872635;29;20284;-66
2023/09/16 11:41:30;;;;;;;4.38;3.85;;;35.20;91.10;;;;;;4863052;29;20299;-63
2023/09/16 11:43:57;;;;;;;4.35;3.95;;;35.80;90.80;;;;;;4873627;29;20205;-63
2023/09/16 11:46:25;;;;;;;4.25;3.95;;;36.70;90.50;;;;;;4869241;29;20534;-64
2023/09/16 11:48:55;;;;;;;4.13;3.83;;;34.30;81.40;;;;;;4872354;29;20197;-63
2023/09/16 11:51:24;;;;;;;3.78;3.45;;;33.50;91.00;;;;;;4870039;29;20201;-63
2023/09/16 11:53:53;;;;;;;5.10;3.85;;;33.80;92.10;;;;;;4872081;29;20461;-62
2023/09/16 11:56:26;;;;;;;4.05;3.58;;;33.20;91.50;;;;;;4871977;29;20677;-61
2023/09/16 11:58:54;;;;;;;4.60;4.15;;;32.40;91.50;;;;;;4871138;29;20504;-61
2023/09/16 12:01:23;;;;;;;4.10;3.70;;;31.60;93.20;;;;;;4872574;29;20300;-63
2023/09/16 12:03:51;;;;;;;4.38;4.00;;;31.00;93.50;;;;;;4863542;29;20706;-63
2023/09/16 12:06:20;;;;;;;4.50;4.10;;;31.00;95.10;;;;;;4867572;29;20229;-64
2023/09/16 12:08:48;;;;;;;4.32;3.92;;;31.30;94.70;;;;;;4870667;29;20194;-63
2023/09/16 12:11:16;;;;;;;4.30;3.95;;;31.80;96.20;;;;;;4871736;29;20204;-64
2023/09/16 12:13:43;;;;;;;4.50;4.10;;;31.50;95.10;;;;;;4871974;29;20242;-65
2023/09/16 12:16:10;;;;;;;4.72;4.32;;;31.90;96.10;;;;;;4868699;29;20218;-63
2023/09/16 12:18:37;;;;;;;5.57;4.05;;;32.00;94.40;;;;;;4868747;29;20548;-62
2023/09/16 12:21:06;;;;;;;5.05;4.22;;;32.20;96.90;;;;;;4870579;29;20619;-63
2023/09/16 12:23:33;;;;;;;6.05;4.25;;;33.20;95.40;;;;;;4869997;29;20233;-62
2023/09/16 12:26:00;;;;;;;5.03;4.43;;;31.90;95.40;;;;;;4852257;29;20202;-63
2023/09/16 12:28:28;;;;;;;4.80;4.30;;;31.60;95.10;;;;;;4855656;29;20209;-64
2023/09/16 12:30:56;;;;;;;4.40;4.00;;;30.20;96.00;;;;;;4871948;29;20214;-62
2023/09/16 12:33:36;;;;;;;5.03;4.63;;;31.00;98.70;;;;;;4873050;29;20321;-62
2023/09/16 12:36:04;;;;;;;4.65;4.22;;;30.40;98.90;;;;;;4865692;29;20301;-62
2023/09/16 12:38:33;;;;;;;4.80;4.30;;;31.10;99.00;;;;;;4869368;29;20203;-64
2023/09/16 12:41:02;;;;;;;4.53;4.10;;;30.00;97.60;;;;;;4870543;29;20293;-62
2023/09/16 12:43:30;;;;;;;4.43;4.07;;;30.10;99.90;;;;;;4873379;29;20194;-64
2023/09/16 12:46:01;;;;;;;6.22;4.32;;;31.10;99.90;;;;;;4867743;29;20198;-63
2023/09/16 12:48:29;;;;;;;4.38;4.00;;;30.90;99.90;;;;;;4874303;29;20221;-63
2023/09/16 12:50:56;;;;;;;4.28;3.88;;;31.20;99.90;;;;;;4870482;29;20229;-62
2023/09/16 12:53:25;;;;;;;5.07;4.28;;;30.60;99.90;;;;;;4859961;29;20221;-63
2023/09/16 12:55:52;;;;;;;4.32;3.90;;;30.90;99.90;;;;;;4872568;29;20202;-63
2023/09/16 12:58:21;;;;;;;4.50;4.10;;;31.20;99.90;;;;;;4870307;29;20206;-65